createdAt,value
2017-11-13T00:01:22.342Z,17.33
2017-11-13T00:03:48.927Z,15.77
2017-11-13T00:06:15.511Z,15.20
2017-11-13T00:08:42.103Z,15.00
2017-11-13T00:11:08.691Z,15.63
2017-11-13T00:13:35.289Z,15.53
2017-11-13T00:16:01.879Z,15.23
2017-11-13T00:18:28.472Z,14.37
2017-11-13T00:20:55.075Z,15.87
2017-11-13T00:23:21.659Z,13.47
2017-11-13T00:25:48.283Z,13.83
2017-11-13T00:28:14.850Z,14.23
2017-11-13T00:30:41.437Z,14.20
2017-11-13T00:33:08.021Z,14.90
2017-11-13T00:35:34.626Z,14.73
2017-11-13T00:38:01.217Z,16.10
2017-11-13T00:40:27.802Z,15.70
2017-11-13T00:42:54.402Z,16.43
2017-11-13T00:45:20.995Z,16.07
2017-11-13T00:47:47.582Z,15.40
2017-11-13T00:50:14.174Z,16.53
2017-11-13T00:52:40.841Z,15.57
2017-11-13T00:55:07.406Z,15.30
2017-11-13T00:57:34.001Z,14.83
2017-11-13T01:00:00.599Z,14.50
2017-11-13T01:02:27.183Z,14.97
2017-11-13T01:04:53.774Z,14.30
2017-11-13T01:07:20.353Z,14.13
2017-11-13T01:09:46.935Z,13.10
2017-11-13T01:12:13.521Z,15.57
2017-11-13T01:14:40.103Z,14.20
2017-11-13T01:17:06.719Z,14.23
2017-11-13T01:19:33.315Z,14.00
2017-11-13T01:21:59.897Z,14.67
2017-11-13T01:24:26.479Z,16.10
2017-11-13T01:26:53.082Z,15.07
2017-11-13T01:29:19.664Z,15.40
2017-11-13T01:31:46.246Z,15.50
2017-11-13T01:34:12.840Z,15.60
2017-11-13T01:36:39.429Z,16.40
2017-11-13T01:39:06.014Z,15.43
2017-11-13T01:41:32.613Z,15.20
2017-11-13T01:43:59.198Z,14.47
2017-11-13T01:46:25.781Z,14.13
2017-11-13T01:48:52.384Z,14.03
2017-11-13T01:51:18.959Z,13.33
2017-11-13T01:53:45.542Z,13.23
2017-11-13T01:56:12.143Z,13.40
2017-11-13T01:58:38.725Z,13.57
2017-11-13T02:01:05.322Z,13.47
2017-11-13T02:03:31.918Z,13.70
2017-11-13T02:05:58.503Z,14.13
2017-11-13T02:08:25.084Z,12.70
2017-11-13T02:10:51.674Z,14.00
2017-11-13T02:13:18.263Z,12.37
2017-11-13T02:15:44.847Z,13.20
2017-11-13T02:18:11.430Z,13.73
2017-11-13T02:20:38.013Z,14.93
2017-11-13T02:23:04.621Z,14.33
2017-11-13T02:25:31.202Z,14.90
2017-11-13T02:27:57.773Z,14.07
2017-11-13T02:33:08.273Z,15.27
2017-11-13T02:35:34.876Z,14.97
2017-11-13T02:38:01.452Z,16.17
2017-11-13T02:40:28.037Z,15.50
2017-11-13T02:42:54.619Z,15.73
2017-11-13T02:45:21.202Z,16.33
2017-11-13T02:47:47.802Z,17.10
2017-11-13T02:50:14.401Z,15.80
2017-11-13T02:52:40.987Z,15.37
2017-11-13T02:55:07.574Z,17.03
2017-11-13T02:57:34.173Z,14.20
2017-11-13T03:00:00.755Z,13.20
2017-11-13T03:02:27.344Z,13.33
2017-11-13T03:04:53.985Z,12.47
2017-11-13T03:07:20.562Z,12.30
2017-11-13T03:09:47.146Z,11.70
2017-11-13T03:12:13.783Z,11.93
2017-11-13T03:14:40.333Z,12.80
2017-11-13T03:17:06.927Z,11.63
2017-11-13T03:19:33.515Z,11.30
2017-11-13T03:22:00.094Z,10.97
2017-11-13T03:24:26.682Z,9.60
2017-11-13T03:26:53.274Z,9.00
2017-11-13T03:29:19.871Z,7.27
2017-11-13T03:31:46.454Z,6.47
2017-11-13T03:34:13.029Z,5.70
2017-11-13T03:36:39.603Z,6.37
2017-11-13T03:39:06.174Z,6.30
2017-11-13T03:41:32.822Z,5.70
2017-11-13T03:43:59.378Z,5.40
2017-11-13T03:46:25.954Z,6.47
2017-11-13T03:48:52.533Z,5.93
2017-11-13T03:51:19.115Z,5.50
2017-11-13T03:53:45.686Z,5.60
2017-11-13T03:56:12.286Z,6.27
2017-11-13T03:58:38.859Z,5.47
2017-11-13T04:01:05.441Z,5.80
2017-11-13T04:03:32.023Z,5.70
2017-11-13T04:05:58.607Z,5.50
2017-11-13T04:08:25.186Z,5.90
2017-11-13T04:10:51.757Z,5.63
2017-11-13T04:13:18.347Z,6.53
2017-11-13T04:15:44.930Z,6.60
2017-11-13T04:18:11.517Z,7.00
2017-11-13T04:20:38.090Z,6.60
2017-11-13T04:23:04.712Z,7.50
2017-11-13T04:25:31.296Z,6.87
2017-11-13T04:27:57.873Z,6.40
2017-11-13T04:30:24.458Z,7.47
2017-11-13T04:32:51.030Z,6.93
2017-11-13T04:35:17.614Z,7.30
2017-11-13T04:37:44.182Z,6.67
2017-11-13T04:40:10.792Z,6.40
2017-11-13T04:42:37.371Z,5.93
2017-11-13T04:45:03.943Z,6.00
2017-11-13T04:47:30.523Z,5.47
2017-11-13T04:49:57.107Z,5.87
2017-11-13T04:52:23.688Z,4.90
2017-11-13T04:54:50.250Z,4.90
2017-11-13T04:57:16.843Z,5.70
2017-11-13T04:59:43.415Z,5.90
2017-11-13T05:02:09.994Z,7.20
2017-11-13T05:04:36.580Z,7.00
2017-11-13T05:07:03.163Z,7.30
2017-11-13T05:09:29.780Z,6.83
2017-11-13T05:11:56.351Z,6.67
2017-11-13T05:14:23.043Z,7.60
2017-11-13T05:16:49.623Z,7.83
2017-11-13T05:19:16.227Z,8.20
2017-11-13T05:21:42.810Z,8.30
2017-11-13T05:24:09.391Z,8.57
2017-11-13T05:26:35.978Z,9.07
2017-11-13T05:29:02.607Z,8.20
2017-11-13T05:31:29.170Z,8.30
2017-11-13T05:33:55.750Z,9.20
2017-11-13T05:36:22.329Z,8.40
2017-11-13T05:38:48.915Z,8.60
2017-11-13T05:41:15.489Z,8.63
2017-11-13T05:43:42.076Z,8.43
2017-11-13T05:46:08.658Z,8.80
2017-11-13T05:48:35.270Z,7.50
2017-11-13T05:51:01.845Z,7.80
2017-11-13T05:53:28.435Z,7.40
2017-11-13T05:55:55.014Z,7.50
2017-11-13T05:58:21.589Z,8.50
2017-11-13T06:00:48.170Z,7.80
2017-11-13T06:03:14.749Z,6.90
2017-11-13T06:05:41.346Z,6.97
2017-11-13T06:08:07.924Z,7.47
2017-11-13T06:10:34.513Z,6.33
2017-11-13T06:13:01.090Z,6.70
2017-11-13T06:15:27.678Z,6.10
2017-11-13T06:17:54.254Z,6.47
2017-11-13T06:20:20.846Z,6.67
2017-11-13T06:22:47.431Z,7.03
2017-11-13T06:25:14.002Z,6.00
2017-11-13T06:27:40.583Z,5.30
2017-11-13T06:30:07.158Z,5.07
2017-11-13T06:32:33.746Z,5.40
2017-11-13T06:35:00.323Z,5.50
2017-11-13T06:37:26.914Z,5.70
2017-11-13T06:39:53.494Z,5.03
2017-11-13T06:42:20.067Z,5.13
2017-11-13T06:44:46.646Z,4.30
2017-11-13T06:47:13.218Z,5.03
2017-11-13T06:49:39.805Z,3.93
2017-11-13T06:52:06.414Z,4.17
2017-11-13T06:54:32.991Z,4.80
2017-11-13T06:56:59.590Z,4.90
2017-11-13T06:59:26.210Z,4.10
2017-11-13T07:01:52.791Z,4.30
2017-11-13T07:04:19.371Z,4.33
2017-11-13T07:06:45.958Z,4.00
2017-11-13T07:09:12.540Z,4.20
2017-11-13T07:11:39.232Z,3.80
2017-11-13T07:14:05.814Z,3.47
2017-11-13T07:16:32.365Z,3.37
2017-11-13T07:18:58.944Z,3.30
2017-11-13T07:21:25.510Z,3.40
2017-11-13T07:23:52.094Z,3.20
2017-11-13T07:26:18.679Z,3.10
2017-11-13T07:28:45.242Z,3.47
2017-11-13T07:31:11.819Z,3.47
2017-11-13T07:33:38.396Z,3.23
2017-11-13T07:36:04.986Z,2.60
2017-11-13T07:38:31.557Z,2.77
2017-11-13T07:40:58.149Z,3.00
2017-11-13T07:43:24.734Z,2.80
2017-11-13T07:45:51.306Z,3.53
2017-11-13T07:48:17.892Z,3.73
2017-11-13T07:50:44.490Z,3.47
2017-11-13T07:53:11.071Z,3.20
2017-11-13T07:55:37.647Z,3.77
2017-11-13T07:58:04.227Z,3.83
2017-11-13T08:00:30.798Z,3.43
2017-11-13T08:02:57.386Z,3.57
2017-11-13T08:05:23.966Z,3.60
2017-11-13T08:07:50.661Z,3.60
2017-11-13T08:10:17.222Z,3.60
2017-11-13T08:12:43.822Z,4.23
2017-11-13T08:15:10.401Z,3.33
2017-11-13T08:17:36.991Z,3.77
2017-11-13T08:20:03.575Z,4.30
2017-11-13T08:22:30.160Z,3.80
2017-11-13T08:24:56.746Z,4.57
2017-11-13T08:27:23.330Z,5.10
2017-11-13T08:29:49.942Z,4.00
2017-11-13T08:32:16.515Z,4.87
2017-11-13T08:34:43.094Z,4.73
2017-11-13T08:37:09.680Z,4.80
2017-11-13T08:39:36.258Z,5.33
2017-11-13T08:42:02.864Z,5.10
2017-11-13T08:44:29.429Z,5.83
2017-11-13T08:46:56.022Z,6.00
2017-11-13T08:49:22.616Z,5.13
2017-11-13T08:51:49.179Z,5.33
2017-11-13T08:54:15.757Z,6.17
2017-11-13T08:56:42.365Z,6.03
2017-11-13T08:59:08.995Z,5.90
2017-11-13T09:01:35.602Z,7.20
2017-11-13T09:04:02.206Z,7.33
2017-11-13T09:06:28.794Z,7.10
2017-11-13T09:08:55.411Z,5.90
2017-11-13T09:11:21.989Z,6.60
2017-11-13T09:13:48.571Z,6.30
2017-11-13T09:16:15.150Z,7.20
2017-11-13T09:18:41.735Z,5.90
2017-11-13T09:21:08.318Z,5.73
2017-11-13T09:23:34.946Z,6.07
2017-11-13T09:26:01.550Z,6.93
2017-11-13T09:28:28.126Z,6.10
2017-11-13T09:30:54.837Z,6.07
2017-11-13T09:33:21.410Z,6.00
2017-11-13T09:35:48.038Z,5.30
2017-11-13T09:38:14.602Z,6.23
2017-11-13T09:40:41.178Z,5.03
2017-11-13T09:43:07.792Z,4.80
2017-11-13T09:45:34.370Z,5.33
2017-11-13T09:48:00.946Z,5.37
2017-11-13T09:50:27.539Z,5.07
2017-11-13T09:52:54.115Z,5.63
2017-11-13T09:55:20.694Z,5.10
2017-11-13T09:57:47.295Z,5.37
2017-11-13T10:00:13.910Z,5.13
2017-11-13T10:02:40.490Z,5.60
2017-11-13T10:05:07.074Z,5.90
2017-11-13T10:07:33.663Z,4.70
2017-11-13T10:10:00.242Z,4.73
2017-11-13T10:12:26.827Z,4.43
2017-11-13T10:14:53.450Z,4.93
2017-11-13T10:17:20.034Z,4.87
2017-11-13T10:19:46.610Z,4.63
2017-11-13T10:22:13.203Z,4.90
2017-11-13T10:24:39.788Z,6.20
2017-11-13T10:27:06.413Z,6.33
2017-11-13T10:29:33.022Z,6.93
2017-11-13T10:31:59.602Z,7.23
2017-11-13T10:34:26.203Z,7.70
2017-11-13T10:36:52.790Z,8.77
2017-11-13T10:39:19.367Z,7.90
2017-11-13T10:41:45.937Z,9.00
2017-11-13T10:44:12.542Z,8.20
2017-11-13T10:46:39.110Z,8.33
2017-11-13T10:49:05.699Z,9.17
2017-11-13T10:51:32.290Z,9.20
2017-11-13T10:53:58.868Z,9.20
2017-11-13T10:56:25.458Z,8.10
2017-11-13T10:58:52.038Z,8.20
2017-11-13T11:01:18.627Z,7.57
2017-11-13T11:03:45.210Z,7.10
2017-11-13T11:06:11.825Z,8.10
2017-11-13T11:08:38.419Z,7.90
2017-11-13T11:11:04.996Z,7.27
2017-11-13T11:13:33.336Z,6.20
2017-11-13T11:16:00.385Z,6.10
2017-11-13T11:18:43.654Z,6.60
2017-11-13T11:21:12.011Z,6.77
2017-11-13T11:23:38.590Z,5.57
2017-11-13T11:26:05.191Z,5.63
2017-11-13T11:28:32.687Z,5.53
2017-11-13T11:31:00.835Z,5.10
2017-11-13T11:33:33.167Z,5.20
2017-11-13T11:35:59.746Z,5.10
2017-11-13T11:38:26.327Z,5.80
2017-11-13T11:40:52.948Z,5.20
2017-11-13T11:43:19.531Z,5.33
2017-11-13T11:45:50.813Z,5.53
2017-11-13T11:48:23.013Z,5.20
2017-11-13T11:50:49.594Z,4.80
2017-11-13T11:53:16.174Z,5.00
2017-11-13T11:55:48.440Z,5.40
2017-11-13T11:58:15.021Z,4.80
2017-11-13T12:00:41.614Z,5.67
2017-11-13T12:03:08.204Z,4.83
2017-11-13T12:05:34.790Z,4.53
2017-11-13T12:08:01.378Z,4.40
2017-11-13T12:10:28.023Z,4.70
2017-11-13T12:12:54.614Z,4.83
2017-11-13T12:15:21.185Z,4.50
2017-11-13T12:17:47.770Z,4.37
2017-11-13T12:20:14.373Z,5.70
2017-11-13T12:22:40.931Z,5.20
2017-11-13T12:25:08.338Z,4.73
2017-11-13T12:27:34.950Z,4.60
2017-11-13T12:30:01.530Z,4.63
2017-11-13T12:32:28.126Z,4.47
2017-11-13T12:34:54.702Z,4.63
2017-11-13T12:37:21.283Z,4.00
2017-11-13T12:39:47.877Z,3.90
2017-11-13T12:42:14.459Z,3.60
2017-11-13T12:44:41.038Z,4.17
2017-11-13T12:47:07.626Z,4.10
2017-11-13T12:49:34.206Z,4.33
2017-11-13T12:52:00.791Z,4.57
2017-11-13T12:54:27.372Z,4.30
2017-11-13T12:56:53.967Z,4.70
2017-11-13T12:59:20.563Z,4.80
2017-11-13T13:01:47.142Z,5.00
2017-11-13T13:04:13.722Z,4.27
2017-11-13T13:06:40.303Z,5.07
2017-11-13T13:09:06.884Z,4.60
2017-11-13T13:11:33.489Z,5.27
2017-11-13T13:14:00.071Z,5.07
2017-11-13T13:16:26.655Z,5.80
2017-11-13T13:18:53.254Z,5.17
2017-11-13T13:21:19.846Z,5.03
2017-11-13T13:23:46.429Z,4.90
2017-11-13T13:26:13.009Z,5.00
2017-11-13T13:28:39.600Z,4.70
2017-11-13T13:31:06.185Z,5.77
2017-11-13T13:33:32.769Z,5.33
2017-11-13T13:35:59.350Z,5.50
2017-11-13T13:38:25.943Z,6.00
2017-11-13T13:40:52.562Z,5.97
2017-11-13T13:43:19.133Z,7.03
2017-11-13T13:45:45.713Z,7.27
2017-11-13T13:48:12.288Z,7.00
2017-11-13T13:50:38.870Z,7.40
2017-11-13T13:53:05.457Z,8.10
2017-11-13T13:55:32.050Z,8.30
2017-11-13T13:57:58.629Z,8.00
2017-11-13T14:00:25.231Z,7.67
2017-11-13T14:02:51.816Z,7.80
2017-11-13T14:05:18.396Z,6.30
2017-11-13T14:07:44.984Z,5.90
2017-11-13T14:10:11.558Z,6.83
2017-11-13T14:12:38.165Z,6.20
2017-11-13T14:15:04.743Z,6.30
2017-11-13T14:17:31.320Z,5.83
2017-11-13T14:19:57.903Z,6.20
2017-11-13T14:22:24.482Z,5.90
2017-11-13T14:24:51.073Z,6.93
2017-11-13T14:27:17.647Z,6.10
2017-11-13T14:29:44.222Z,6.60
2017-11-13T14:32:10.807Z,8.03
2017-11-13T14:34:37.385Z,6.50
2017-11-13T14:37:03.990Z,6.60
2017-11-13T14:39:30.571Z,6.10
2017-11-13T14:41:57.146Z,6.37
2017-11-13T14:44:23.742Z,5.90
2017-11-13T14:46:50.314Z,6.50
2017-11-13T14:49:17.221Z,6.50
2017-11-13T14:51:43.803Z,6.60
2017-11-13T14:54:10.404Z,6.93
2017-11-13T14:56:37.006Z,6.83
2017-11-13T14:59:03.581Z,7.03
2017-11-13T15:01:30.182Z,6.37
2017-11-13T15:03:56.759Z,7.13
2017-11-13T15:06:23.348Z,7.30
2017-11-13T15:08:49.927Z,6.60
2017-11-13T15:11:16.516Z,7.20
2017-11-13T15:13:43.110Z,6.97
2017-11-13T15:16:09.672Z,6.17
2017-11-13T15:18:36.307Z,6.50
2017-11-13T15:21:02.880Z,6.60
2017-11-13T15:23:29.464Z,6.23
2017-11-13T15:25:56.046Z,6.83
2017-11-13T15:28:22.632Z,6.67
2017-11-13T15:30:49.244Z,7.67
2017-11-13T15:33:15.861Z,8.57
2017-11-13T15:35:42.434Z,7.50
2017-11-13T15:38:09.013Z,7.20
2017-11-13T15:40:35.606Z,8.63
2017-11-13T15:43:02.181Z,9.10
2017-11-13T15:45:28.769Z,9.37
2017-11-13T15:47:55.337Z,9.57
2017-11-13T15:50:21.922Z,8.57
2017-11-13T15:52:48.503Z,8.33
2017-11-13T15:55:15.099Z,7.47
2017-11-13T15:57:41.673Z,7.37
2017-11-13T16:00:08.251Z,7.43
2017-11-13T16:02:34.853Z,7.93
2017-11-13T16:05:01.417Z,7.30
2017-11-13T16:07:28.001Z,6.40
2017-11-13T16:09:54.574Z,6.80
2017-11-13T16:12:21.154Z,5.60
2017-11-13T16:14:47.735Z,5.93
2017-11-13T16:17:14.314Z,5.23
2017-11-13T16:19:40.896Z,5.80
2017-11-13T16:22:07.482Z,6.07
2017-11-13T16:24:34.151Z,6.03
2017-11-13T16:27:00.735Z,6.20
2017-11-13T16:29:27.316Z,7.67
2017-11-13T16:31:53.894Z,7.70
2017-11-13T16:34:20.480Z,8.00
2017-11-13T16:36:47.066Z,10.00
2017-11-13T16:39:13.677Z,10.20
2017-11-13T16:41:40.225Z,10.93
2017-11-13T16:44:06.828Z,10.63
2017-11-13T16:46:33.421Z,10.77
2017-11-13T16:48:59.987Z,9.97
2017-11-13T16:51:26.566Z,9.20
2017-11-13T16:53:53.145Z,8.07
2017-11-13T16:56:19.731Z,8.77
2017-11-13T16:58:46.306Z,8.07
2017-11-13T17:01:12.904Z,8.60
2017-11-13T17:03:39.480Z,6.73
2017-11-13T17:06:06.073Z,5.70
2017-11-13T17:08:32.658Z,5.30
2017-11-13T17:10:59.229Z,5.63
2017-11-13T17:13:25.816Z,5.10
2017-11-13T17:15:52.397Z,5.10
2017-11-13T17:18:18.977Z,4.53
2017-11-13T17:20:45.566Z,4.10
2017-11-13T17:23:12.243Z,4.37
2017-11-13T17:25:38.827Z,4.43
2017-11-13T17:28:05.427Z,4.00
2017-11-13T17:30:32.010Z,4.00
2017-11-13T17:32:58.591Z,4.07
2017-11-13T17:35:25.246Z,3.90
2017-11-13T17:37:51.822Z,3.90
2017-11-13T17:40:18.410Z,3.57
2017-11-13T17:42:44.985Z,3.73
2017-11-13T17:45:11.567Z,3.80
2017-11-13T17:47:38.156Z,3.80
2017-11-13T17:50:04.738Z,3.80
2017-11-13T17:52:31.319Z,3.17
2017-11-13T17:54:57.900Z,3.73
2017-11-13T17:57:24.491Z,4.00
2017-11-13T17:59:51.066Z,3.90
2017-11-13T18:02:17.658Z,3.83
2017-11-13T18:04:44.238Z,4.53
2017-11-13T18:07:10.819Z,4.90
2017-11-13T18:09:37.439Z,4.77
2017-11-13T18:12:04.003Z,4.53
2017-11-13T18:14:30.604Z,4.90
2017-11-13T18:16:57.186Z,5.57
2017-11-13T18:19:23.808Z,5.77
2017-11-13T18:21:50.386Z,4.77
2017-11-13T18:24:16.989Z,6.83
2017-11-13T18:26:43.566Z,7.60
2017-11-13T18:29:10.143Z,8.17
2017-11-13T18:31:36.735Z,7.70
2017-11-13T18:34:03.314Z,6.90
2017-11-13T18:36:29.959Z,6.20
2017-11-13T18:38:56.526Z,5.20
2017-11-13T18:41:23.111Z,5.10
2017-11-13T18:43:50.270Z,5.30
2017-11-13T18:46:16.858Z,4.70
2017-11-13T18:48:44.050Z,5.27
2017-11-13T18:51:10.619Z,4.83
2017-11-13T18:53:37.210Z,5.67
2017-11-13T18:56:03.794Z,6.03
2017-11-13T18:58:30.382Z,5.10
2017-11-13T19:00:56.962Z,4.50
2017-11-13T19:03:23.547Z,4.50
2017-11-13T19:05:51.043Z,4.63
2017-11-13T19:08:17.651Z,4.10
2017-11-13T19:10:44.279Z,4.13
2017-11-13T19:13:10.859Z,4.37
2017-11-13T19:15:37.723Z,5.00
2017-11-13T19:18:04.299Z,4.50
2017-11-13T19:20:30.881Z,4.00
2017-11-13T19:22:57.450Z,3.70
2017-11-13T19:25:24.041Z,3.50
2017-11-13T19:27:50.626Z,3.27
2017-11-13T19:30:17.306Z,4.17
2017-11-13T19:32:43.874Z,3.43
2017-11-13T19:35:11.505Z,2.80
2017-11-13T19:37:38.129Z,3.00
2017-11-13T19:40:04.708Z,3.50
2017-11-13T19:42:31.379Z,4.20
2017-11-13T19:44:57.953Z,5.20
2017-11-13T19:47:24.522Z,5.70
2017-11-13T19:49:51.101Z,5.30
2017-11-13T19:52:17.672Z,4.63
2017-11-13T19:54:44.253Z,4.07
2017-11-13T19:57:10.837Z,3.90
2017-11-13T19:59:38.284Z,4.37
2017-11-13T20:02:04.905Z,3.90
2017-11-13T20:04:31.494Z,3.27
2017-11-13T20:06:58.086Z,2.90
2017-11-13T20:09:24.663Z,2.90
2017-11-13T20:11:51.243Z,3.90
2017-11-13T20:14:17.818Z,2.90
2017-11-13T20:16:44.406Z,2.57
2017-11-13T20:19:10.978Z,2.57
2017-11-13T20:21:37.556Z,3.00
2017-11-13T20:24:04.158Z,2.50
2017-11-13T20:26:30.746Z,2.90
2017-11-13T20:28:57.318Z,2.30
2017-11-13T20:31:23.898Z,2.80
2017-11-13T20:33:50.474Z,2.97
2017-11-13T20:36:17.062Z,3.60
2017-11-13T20:38:43.637Z,3.73
2017-11-13T20:41:10.236Z,3.87
2017-11-13T20:43:36.806Z,3.90
2017-11-13T20:46:03.380Z,4.47
2017-11-13T20:48:29.967Z,3.97
2017-11-13T20:50:56.533Z,3.50
2017-11-13T20:53:23.119Z,3.70
2017-11-13T20:55:49.694Z,3.53
2017-11-13T20:58:16.314Z,3.50
2017-11-13T21:00:42.893Z,3.30
2017-11-13T21:03:09.565Z,2.70
2017-11-13T21:05:36.231Z,3.03
2017-11-13T21:08:02.815Z,3.00
2017-11-13T21:10:29.398Z,3.00
2017-11-13T21:12:56.081Z,2.53
2017-11-13T21:15:22.638Z,3.00
2017-11-13T21:17:51.131Z,2.53
2017-11-13T21:20:17.715Z,2.90
2017-11-13T21:22:44.298Z,3.13
2017-11-13T21:25:10.869Z,3.27
2017-11-13T21:27:37.464Z,3.17
2017-11-13T21:30:04.792Z,3.47
2017-11-13T21:32:32.530Z,3.53
2017-11-13T21:34:59.118Z,4.07
2017-11-13T21:37:26.814Z,3.60
2017-11-13T21:39:53.466Z,3.83
2017-11-13T21:42:20.050Z,3.77
2017-11-13T21:44:47.346Z,4.10
2017-11-13T21:47:15.265Z,4.20
2017-11-13T21:49:41.883Z,4.50
2017-11-13T21:52:08.477Z,3.47
2017-11-13T21:54:36.974Z,3.70
2017-11-13T21:57:03.597Z,3.70
2017-11-13T21:59:30.177Z,3.33
2017-11-13T22:01:56.761Z,3.40
2017-11-13T22:04:23.336Z,3.20
2017-11-13T22:06:49.918Z,3.07
2017-11-13T22:09:16.531Z,2.90
2017-11-13T22:11:43.107Z,3.30
2017-11-13T22:14:09.691Z,2.87
2017-11-13T22:16:36.262Z,2.90
2017-11-13T22:19:02.856Z,2.90
2017-11-13T22:21:29.433Z,3.20
2017-11-13T22:23:56.019Z,3.07
2017-11-13T22:26:22.609Z,2.73
2017-11-13T22:28:49.176Z,2.67
2017-11-13T22:31:15.756Z,3.27
2017-11-13T22:33:42.333Z,2.70
2017-11-13T22:36:08.915Z,2.80
2017-11-13T22:38:35.494Z,3.13
2017-11-13T22:41:03.246Z,3.50
2017-11-13T22:43:29.828Z,3.20
2017-11-13T22:45:56.404Z,3.40
2017-11-13T22:48:22.982Z,2.90
2017-11-13T22:50:51.427Z,3.40
2017-11-13T22:53:18.014Z,3.77
2017-11-13T22:55:44.592Z,3.30
2017-11-13T22:58:11.161Z,3.67
2017-11-13T23:00:37.763Z,4.00
2017-11-13T23:03:04.343Z,3.33
2017-11-13T23:05:30.926Z,3.37
2017-11-13T23:07:57.497Z,3.60
2017-11-13T23:10:24.089Z,3.40
2017-11-13T23:12:50.669Z,4.00
2017-11-13T23:15:17.246Z,4.10
2017-11-13T23:17:43.819Z,4.07
2017-11-13T23:20:10.414Z,3.73
2017-11-13T23:22:37.003Z,3.80
2017-11-13T23:25:03.574Z,3.60
2017-11-13T23:27:30.194Z,3.70
2017-11-13T23:29:56.780Z,4.20
2017-11-13T23:32:23.350Z,4.43
2017-11-13T23:34:49.939Z,4.03
2017-11-13T23:37:16.522Z,3.90
2017-11-13T23:39:43.103Z,3.90
2017-11-13T23:42:09.685Z,4.37
2017-11-13T23:44:36.264Z,4.20
2017-11-13T23:47:02.859Z,3.77
2017-11-13T23:49:29.434Z,4.30
2017-11-13T23:51:56.020Z,4.10
2017-11-13T23:54:28.437Z,4.63
2017-11-13T23:56:55.036Z,3.80
2017-11-13T23:59:21.625Z,5.07
